createdAt,value
2023-03-11T00:02:23.614Z,96894.94
2023-03-11T00:04:50.541Z,96882.31
2023-03-11T00:07:17.493Z,96879.22
2023-03-11T00:09:46.830Z,96878.97
2023-03-11T00:12:13.769Z,96869.16
2023-03-11T00:14:40.859Z,96884.88
2023-03-11T00:17:07.769Z,96867.63
2023-03-11T00:19:34.688Z,96861.69
2023-03-11T00:22:02.419Z,96858.63
2023-03-11T00:24:29.336Z,96858.88
2023-03-11T00:26:57.704Z,96849.09
2023-03-11T00:29:24.660Z,96853.75
2023-03-11T00:31:52.032Z,96862.25
2023-03-11T00:34:18.947Z,96849.63
2023-03-11T00:36:45.854Z,96836.47
2023-03-11T00:39:13.117Z,96839.03
2023-03-11T00:41:40.088Z,96838.28
2023-03-11T00:44:08.466Z,96832.31
2023-03-11T00:46:35.538Z,96845.97
2023-03-11T00:49:02.504Z,96829.78
2023-03-11T00:51:29.663Z,96834.16
2023-03-11T00:53:56.664Z,96837.50
2023-03-11T00:56:23.856Z,96829.75
2023-03-11T00:58:50.869Z,96838.00
2023-03-11T01:01:20.521Z,96821.78
2023-03-11T01:03:47.707Z,96831.84
2023-03-11T01:06:15.102Z,96831.31
2023-03-11T01:08:42.160Z,96816.88
2023-03-11T01:11:10.325Z,96817.41
2023-03-11T01:13:38.717Z,96814.78
2023-03-11T01:16:06.031Z,96806.56
2023-03-11T01:18:34.386Z,96797.75
2023-03-11T01:21:01.281Z,96798.25
2023-03-11T01:23:28.899Z,96793.81
2023-03-11T01:25:55.938Z,96791.50
2023-03-11T01:28:22.914Z,96789.94
2023-03-11T01:30:51.362Z,96791.22
2023-03-11T01:33:20.150Z,96786.03
2023-03-11T01:35:50.401Z,96783.44
2023-03-11T01:38:21.080Z,96780.09
2023-03-11T01:40:51.033Z,96765.69
2023-03-11T01:43:40.710Z,96764.09
2023-03-11T01:46:19.639Z,96752.22
2023-03-11T01:48:49.113Z,96740.38
2023-03-11T01:51:21.000Z,96739.06
2023-03-11T01:53:48.589Z,96733.13
2023-03-11T01:56:15.621Z,96731.59
2023-03-11T01:58:46.423Z,96726.47
2023-03-11T02:01:13.711Z,96724.16
2023-03-11T02:03:42.507Z,96734.19
2023-03-11T02:06:14.264Z,96729.56
2023-03-11T02:08:44.185Z,96729.84
2023-03-11T02:11:18.618Z,96722.59
2023-03-11T02:13:46.511Z,96726.22
2023-03-11T02:16:14.327Z,96721.56
2023-03-11T02:18:43.102Z,96713.56
2023-03-11T02:21:23.429Z,96726.69
2023-03-11T02:23:59.909Z,96720.00
2023-03-11T02:26:32.847Z,96723.09
2023-03-11T02:29:04.260Z,96722.84
2023-03-11T02:31:32.109Z,96726.41
2023-03-11T02:34:02.785Z,96714.56
2023-03-11T02:36:35.235Z,96715.38
2023-03-11T02:39:03.923Z,96713.84
2023-03-11T02:41:33.037Z,96717.78
2023-03-11T02:44:02.948Z,96723.47
2023-03-11T02:46:31.708Z,96707.00
2023-03-11T02:49:00.185Z,96715.78
2023-03-11T02:51:27.308Z,96711.19
2023-03-11T02:53:59.543Z,96707.59
2023-03-11T02:56:27.463Z,96711.78
2023-03-11T02:58:54.463Z,96707.94
2023-03-11T03:01:23.199Z,96709.50
2023-03-11T03:03:51.279Z,96715.66
2023-03-11T03:06:18.426Z,96706.41
2023-03-11T03:08:45.374Z,96713.63
2023-03-11T03:11:12.362Z,96713.63
2023-03-11T03:13:39.979Z,96707.72
2023-03-11T03:16:07.669Z,96698.72
2023-03-11T03:18:36.259Z,96700.00
2023-03-11T03:21:05.592Z,96689.22
2023-03-11T03:23:35.345Z,96693.03
2023-03-11T03:26:02.554Z,96682.75
2023-03-11T03:28:29.903Z,96678.66
2023-03-11T03:31:03.181Z,96671.19
2023-03-11T03:33:31.229Z,96673.50
2023-03-11T03:35:59.949Z,96670.16
2023-03-11T03:38:30.893Z,96670.94
2023-03-11T03:40:57.916Z,96656.25
2023-03-11T03:43:25.376Z,96660.38
2023-03-11T03:45:56.713Z,96649.31
2023-03-11T03:48:25.104Z,96655.75
2023-03-11T03:50:52.943Z,96656.25
2023-03-11T03:53:21.854Z,96648.03
2023-03-11T03:55:50.877Z,96640.59
2023-03-11T03:58:18.997Z,96638.78
2023-03-11T04:00:45.995Z,96627.97
2023-03-11T04:03:13.119Z,96640.31
2023-03-11T04:05:47.301Z,96632.34
2023-03-11T04:08:14.771Z,96628.50
2023-03-11T04:10:43.104Z,96631.06
2023-03-11T04:13:10.170Z,96630.56
2023-03-11T04:15:38.611Z,96626.97
2023-03-11T04:18:06.026Z,96622.56
2023-03-11T04:20:33.013Z,96619.22
2023-03-11T04:23:00.359Z,96624.09
2023-03-11T04:25:27.876Z,96623.06
2023-03-11T04:27:56.280Z,96622.28
2023-03-11T04:30:23.510Z,96616.41
2023-03-11T04:32:55.200Z,96617.16
2023-03-11T04:35:22.332Z,96607.91
2023-03-11T04:37:49.347Z,96603.78
2023-03-11T04:40:17.034Z,96604.75
2023-03-11T04:42:44.807Z,96611.25
2023-03-11T04:45:13.575Z,96605.53
2023-03-11T04:47:42.686Z,96607.34
2023-03-11T04:50:10.612Z,96610.91
2023-03-11T04:52:37.585Z,96610.41
2023-03-11T04:55:05.463Z,96619.66
2023-03-11T04:57:33.232Z,96615.53
2023-03-11T05:00:00.754Z,96609.91
2023-03-11T05:02:29.772Z,96611.44
2023-03-11T05:05:00.017Z,96618.66
2023-03-11T05:07:27.542Z,96622.50
2023-03-11T05:09:55.242Z,96615.03
2023-03-11T05:12:22.417Z,96609.41
2023-03-11T05:14:52.580Z,96619.97
2023-03-11T05:17:19.853Z,96624.09
2023-03-11T05:19:49.728Z,96630.00
2023-03-11T05:22:24.263Z,96630.03
2023-03-11T05:24:51.908Z,96628.97
2023-03-11T05:27:19.936Z,96637.25
2023-03-11T05:29:51.033Z,96634.91
2023-03-11T05:32:19.707Z,96639.53
2023-03-11T05:34:50.111Z,96641.34
2023-03-11T05:37:17.544Z,96644.69
2023-03-11T05:39:46.634Z,96651.13
2023-03-11T05:42:14.925Z,96643.94
2023-03-11T05:44:48.906Z,96644.19
2023-03-11T05:47:16.860Z,96660.13
2023-03-11T05:49:49.098Z,96660.38
2023-03-11T05:52:18.191Z,96660.13
2023-03-11T05:54:45.478Z,96661.91
2023-03-11T05:57:12.685Z,96671.19
2023-03-11T05:59:39.627Z,96672.19
2023-03-11T06:02:06.621Z,96679.38
2023-03-11T06:04:34.031Z,96684.50
2023-03-11T06:07:04.755Z,96686.81
2023-03-11T06:09:38.474Z,96688.63
2023-03-11T06:12:09.436Z,96690.66
2023-03-11T06:14:49.097Z,96702.78
2023-03-11T06:17:16.442Z,96706.38
2023-03-11T06:19:43.655Z,96710.22
2023-03-11T06:22:12.022Z,96712.50
2023-03-11T06:24:39.036Z,96720.75
2023-03-11T06:27:06.975Z,96719.44
2023-03-11T06:29:33.983Z,96732.06
2023-03-11T06:32:01.143Z,96729.25
2023-03-11T06:34:28.307Z,96733.59
2023-03-11T06:36:55.489Z,96735.16
2023-03-11T06:39:23.757Z,96738.50
2023-03-11T06:41:52.332Z,96747.28
2023-03-11T06:44:19.274Z,96745.97
2023-03-11T06:46:46.966Z,96746.78
2023-03-11T06:49:15.790Z,96749.63
2023-03-11T06:51:43.072Z,96754.00
2023-03-11T06:54:11.505Z,96761.47
2023-03-11T06:56:42.795Z,96766.09
2023-03-11T06:59:11.869Z,96774.59
2023-03-11T07:01:38.974Z,96771.00
2023-03-11T07:04:07.657Z,96770.72
2023-03-11T07:06:36.840Z,96777.69
2023-03-11T07:09:12.471Z,96779.22
2023-03-11T07:11:44.082Z,96775.63
2023-03-11T07:14:15.004Z,96795.72
2023-03-11T07:16:46.442Z,96782.84
2023-03-11T07:19:23.598Z,96790.06
2023-03-11T07:21:51.326Z,96780.50
2023-03-11T07:24:18.313Z,96777.13
2023-03-11T07:26:46.806Z,96776.34
2023-03-11T07:29:13.723Z,96777.38
2023-03-11T07:31:41.584Z,96782.75
2023-03-11T07:34:11.726Z,96784.53
2023-03-11T07:36:40.656Z,96777.56
2023-03-11T07:39:07.953Z,96778.56
2023-03-11T07:41:35.742Z,96768.72
2023-03-11T07:44:04.998Z,96760.91
2023-03-11T07:46:32.978Z,96754.66
2023-03-11T07:49:01.341Z,96756.44
2023-03-11T07:51:29.790Z,96754.34
2023-03-11T07:53:57.826Z,96746.53
2023-03-11T07:56:25.902Z,96739.44
2023-03-11T07:58:53.327Z,96743.75
2023-03-11T08:01:23.797Z,96745.13
2023-03-11T08:03:57.062Z,96730.34
2023-03-11T08:06:25.919Z,96731.53
2023-03-11T08:08:53.481Z,96732.81
2023-03-11T08:11:21.439Z,96725.31
2023-03-11T08:13:48.571Z,96718.09
2023-03-11T08:16:17.247Z,96715.34
2023-03-11T08:18:46.011Z,96707.53
2023-03-11T08:21:14.714Z,96715.44
2023-03-11T08:23:44.244Z,96705.94
2023-03-11T08:26:15.244Z,96707.41
2023-03-11T08:28:42.817Z,96700.59
2023-03-11T08:31:14.082Z,96708.22
2023-03-11T08:33:41.733Z,96706.56
2023-03-11T08:36:10.558Z,96704.47
2023-03-11T08:38:37.659Z,96701.09
2023-03-11T08:41:05.089Z,96698.59
2023-03-11T08:43:32.003Z,96705.97
2023-03-11T08:46:01.062Z,96704.94
2023-03-11T08:48:28.525Z,96701.59
2023-03-11T08:50:56.328Z,96702.28
2023-03-11T08:53:25.076Z,96697.97
2023-03-11T08:55:52.995Z,96702.91
2023-03-11T08:58:20.488Z,96700.72
2023-03-11T09:00:47.806Z,96703.09
2023-03-11T09:03:14.756Z,96705.78
2023-03-11T09:05:41.777Z,96694.63
2023-03-11T09:08:08.861Z,96688.09
2023-03-11T09:10:37.262Z,96686.56
2023-03-11T09:13:04.279Z,96688.63
2023-03-11T09:15:31.243Z,96682.50
2023-03-11T09:17:59.683Z,96683.84
2023-03-11T09:20:26.735Z,96682.38
2023-03-11T09:22:53.731Z,96678.97
2023-03-11T09:25:20.656Z,96679.13
2023-03-11T09:27:49.138Z,96679.91
2023-03-11T09:30:16.400Z,96682.97
2023-03-11T09:32:43.348Z,96666.44
2023-03-11T09:35:10.393Z,96671.78
2023-03-11T09:37:37.346Z,96670.53
2023-03-11T09:40:04.953Z,96671.03
2023-03-11T09:42:37.530Z,96659.59
2023-03-11T09:45:15.228Z,96658.38
2023-03-11T09:48:01.805Z,96648.13
2023-03-11T09:50:31.540Z,96652.34
2023-03-11T09:53:21.667Z,96646.50
2023-03-11T09:55:50.332Z,96631.47
2023-03-11T09:58:27.359Z,96634.56
2023-03-11T10:00:56.336Z,96635.50
2023-03-11T10:03:30.203Z,96630.84
2023-03-11T10:06:04.871Z,96630.34
2023-03-11T10:08:38.941Z,96632.19
2023-03-11T10:11:17.115Z,96627.09
2023-03-11T10:13:52.303Z,96621.75
2023-03-11T10:16:24.645Z,96613.84
2023-03-11T10:19:03.317Z,96616.81
2023-03-11T10:21:42.328Z,96618.31
2023-03-11T10:24:24.095Z,96618.75
2023-03-11T10:26:58.904Z,96613.88
2023-03-11T10:29:28.592Z,96616.28
2023-03-11T10:32:01.911Z,96609.69
2023-03-11T10:34:38.363Z,96608.06
2023-03-11T10:37:11.843Z,96600.28
2023-03-11T10:39:39.461Z,96601.53
2023-03-11T10:42:13.069Z,96607.09
2023-03-11T10:44:41.849Z,96597.31
2023-03-11T10:47:17.296Z,96603.81
2023-03-11T10:49:44.486Z,96597.94
2023-03-11T10:52:12.055Z,96596.31
2023-03-11T10:54:46.117Z,96591.34
2023-03-11T10:57:25.556Z,96594.72
2023-03-11T10:59:54.195Z,96575.22
2023-03-11T11:02:28.572Z,96573.88
2023-03-11T11:05:07.324Z,96565.03
2023-03-11T11:07:36.286Z,96566.91
2023-03-11T11:10:20.831Z,96563.53
2023-03-11T11:12:54.285Z,96565.09
2023-03-11T11:15:22.660Z,96552.53
2023-03-11T11:17:53.064Z,96549.56
2023-03-11T11:20:22.413Z,96554.91
2023-03-11T11:22:54.665Z,96557.03
2023-03-11T11:25:27.909Z,96554.81
2023-03-11T11:27:56.760Z,96546.63
2023-03-11T11:30:24.527Z,96545.16
2023-03-11T11:32:55.472Z,96543.25
2023-03-11T11:35:24.803Z,96550.34
2023-03-11T11:37:53.537Z,96535.94
2023-03-11T11:40:29.921Z,96527.91
2023-03-11T11:43:00.432Z,96521.91
2023-03-11T11:45:36.542Z,96528.47
2023-03-11T11:48:14.468Z,96530.34
2023-03-11T11:50:44.988Z,96529.44
2023-03-11T11:53:23.897Z,96536.88
2023-03-11T11:55:54.106Z,96528.97
2023-03-11T11:58:21.885Z,96534.88
2023-03-11T12:00:58.286Z,96538.13
2023-03-11T12:04:09.607Z,96531.34
2023-03-11T12:06:44.643Z,96538.25
2023-03-11T12:09:24.349Z,96532.56
2023-03-11T12:11:56.931Z,96550.56
2023-03-11T12:14:29.432Z,96552.28
2023-03-11T12:16:58.793Z,96554.28
2023-03-11T12:19:37.759Z,96563.25
2023-03-11T12:22:38.121Z,96556.28
2023-03-11T12:25:22.180Z,96563.78
2023-03-11T12:27:55.649Z,96564.34
2023-03-11T12:30:27.385Z,96559.84
2023-03-11T12:32:59.228Z,96561.53
2023-03-11T12:35:30.954Z,96560.66
2023-03-11T12:38:05.678Z,96565.78
2023-03-11T12:40:59.742Z,96571.69
2023-03-11T12:44:08.204Z,96570.38
2023-03-11T12:47:08.776Z,96571.44
2023-03-11T12:49:37.076Z,96579.41
2023-03-11T12:52:31.270Z,96575.38
2023-03-11T12:55:37.722Z,96573.38
2023-03-11T12:58:20.215Z,96571.75
2023-03-11T13:01:01.075Z,96569.91
2023-03-11T13:03:46.112Z,96560.56
2023-03-11T13:06:37.172Z,96569.09
2023-03-11T13:09:17.329Z,96555.72
2023-03-11T13:11:46.980Z,96547.63
2023-03-11T13:14:31.316Z,96554.25
2023-03-11T13:17:24.619Z,96548.75
2023-03-11T13:19:53.892Z,96548.16
2023-03-11T13:22:56.192Z,96545.72
2023-03-11T13:25:35.621Z,96553.03
2023-03-11T13:28:18.313Z,96544.38
2023-03-11T13:30:57.108Z,96551.00
2023-03-11T13:33:31.555Z,96552.44
2023-03-11T13:36:10.359Z,96555.88
2023-03-11T13:38:57.621Z,96556.91
2023-03-11T13:41:31.776Z,96557.19
2023-03-11T13:44:06.395Z,96552.66
2023-03-11T13:46:40.880Z,96552.09
2023-03-11T13:49:19.647Z,96551.09
2023-03-11T13:51:49.194Z,96558.81
2023-03-11T13:54:38.451Z,96558.97
2023-03-11T13:57:23.700Z,96545.03
2023-03-11T13:59:54.516Z,96550.56
2023-03-11T14:02:24.460Z,96560.81
2023-03-11T14:04:54.646Z,96558.34
2023-03-11T14:07:27.980Z,96552.78
2023-03-11T14:10:26.877Z,96555.53
2023-03-11T14:13:07.934Z,96554.28
2023-03-11T14:15:44.250Z,96553.25
2023-03-11T14:18:33.080Z,96547.47
2023-03-11T14:21:01.027Z,96543.16
2023-03-11T14:23:31.609Z,96550.06
2023-03-11T14:26:01.337Z,96551.75
2023-03-11T14:28:33.963Z,96553.91
2023-03-11T14:31:02.177Z,96556.91
2023-03-11T14:33:29.456Z,96548.66
2023-03-11T14:35:59.774Z,96560.28
2023-03-11T14:38:29.817Z,96550.44
2023-03-11T14:40:58.982Z,96563.81
2023-03-11T14:43:26.985Z,96569.38
2023-03-11T14:45:55.977Z,96572.03
2023-03-11T14:48:27.148Z,96578.34
2023-03-11T14:50:57.059Z,96580.53
2023-03-11T14:53:26.551Z,96587.22
2023-03-11T14:55:56.913Z,96590.19
2023-03-11T14:58:31.751Z,96594.94
2023-03-11T15:01:04.929Z,96598.81
2023-03-11T15:03:34.055Z,96594.00
2023-03-11T15:06:05.583Z,96602.88
2023-03-11T15:08:37.645Z,96613.88
2023-03-11T15:11:08.049Z,96618.69
2023-03-11T15:13:37.163Z,96603.25
2023-03-11T15:16:08.243Z,96616.66
2023-03-11T15:18:37.777Z,96616.19
2023-03-11T15:21:14.212Z,96616.28
2023-03-11T15:23:46.164Z,96636.81
2023-03-11T15:26:22.435Z,96637.88
2023-03-11T15:28:55.306Z,96642.84
2023-03-11T15:31:39.504Z,96648.13
2023-03-11T15:34:28.147Z,96657.19
2023-03-11T15:37:01.769Z,96656.09
2023-03-11T15:39:42.948Z,96658.38
2023-03-11T15:42:17.994Z,96660.81
2023-03-11T15:45:01.290Z,96671.81
2023-03-11T15:47:29.716Z,96678.19
2023-03-11T15:49:57.102Z,96685.25
2023-03-11T15:52:24.178Z,96687.69
2023-03-11T15:54:55.748Z,96689.66
2023-03-11T15:57:26.168Z,96689.78
2023-03-11T15:59:54.853Z,96697.66
2023-03-11T16:02:23.969Z,96698.56
2023-03-11T16:04:52.921Z,96706.69
2023-03-11T16:07:36.467Z,96711.19
2023-03-11T16:10:06.764Z,96719.28
2023-03-11T16:12:33.742Z,96732.28
2023-03-11T16:15:00.660Z,96727.44
2023-03-11T16:17:31.860Z,96733.97
2023-03-11T16:20:09.098Z,96735.13
2023-03-11T16:22:38.083Z,96737.25
2023-03-11T16:25:08.745Z,96740.84
2023-03-11T16:27:35.768Z,96756.41
2023-03-11T16:30:02.919Z,96764.69
2023-03-11T16:32:29.973Z,96768.56
2023-03-11T16:34:56.902Z,96770.66
2023-03-11T16:37:25.223Z,96784.59
2023-03-11T16:39:52.784Z,96786.41
2023-03-11T16:42:22.978Z,96795.47
2023-03-11T16:44:50.331Z,96800.38
2023-03-11T16:47:17.311Z,96804.25
2023-03-11T16:49:50.448Z,96818.97
2023-03-11T16:52:20.839Z,96823.91
2023-03-11T16:54:50.042Z,96832.97
2023-03-11T16:57:16.943Z,96841.25
2023-03-11T16:59:43.977Z,96853.91
2023-03-11T17:02:11.758Z,96865.59
2023-03-11T17:04:38.784Z,96878.22
2023-03-11T17:07:07.048Z,96881.06
2023-03-11T17:09:34.105Z,96888.81
2023-03-11T17:12:03.103Z,96897.16
2023-03-11T17:14:32.177Z,96905.94
2023-03-11T17:16:59.364Z,96901.84
2023-03-11T17:19:26.379Z,96914.75
2023-03-11T17:21:53.298Z,96919.66
2023-03-11T17:24:20.200Z,96921.97
2023-03-11T17:26:47.142Z,96935.13
2023-03-11T17:29:15.560Z,96940.28
2023-03-11T17:31:42.820Z,96941.56
2023-03-11T17:34:09.785Z,96956.75
2023-03-11T17:36:36.864Z,96952.31
2023-03-11T17:39:03.860Z,96964.88
2023-03-11T17:41:30.892Z,96970.28
2023-03-11T17:43:57.860Z,96978.75
2023-03-11T17:46:26.204Z,96972.81
2023-03-11T17:48:53.253Z,96974.09
2023-03-11T17:51:24.297Z,96989.75
2023-03-11T17:53:53.929Z,96976.34
2023-03-11T17:56:22.112Z,96970.66
2023-03-11T17:58:49.834Z,96968.06
2023-03-11T18:01:18.654Z,96974.44
2023-03-11T18:03:47.571Z,96990.38
2023-03-11T18:06:15.521Z,97006.03
2023-03-11T18:08:42.505Z,97012.44
2023-03-11T18:11:11.558Z,97019.56
2023-03-11T18:13:39.692Z,97028.00
2023-03-11T18:16:09.112Z,97041.47
2023-03-11T18:18:37.003Z,97037.84
2023-03-11T18:21:06.939Z,97040.75
2023-03-11T18:23:34.411Z,97049.84
2023-03-11T18:26:03.123Z,97058.94
2023-03-11T18:28:30.141Z,97063.91
2023-03-11T18:30:57.673Z,97056.78
2023-03-11T18:33:25.323Z,97062.84
2023-03-11T18:35:53.432Z,97063.28
2023-03-11T18:38:21.899Z,97065.47
2023-03-11T18:40:56.629Z,97062.47
2023-03-11T18:43:23.738Z,97056.47
2023-03-11T18:45:50.667Z,97077.53
2023-03-11T18:48:17.833Z,97071.78
2023-03-11T18:50:51.165Z,97086.63
2023-03-11T18:53:18.759Z,97089.34
2023-03-11T18:55:47.448Z,97094.91
2023-03-11T18:58:14.581Z,97100.44
2023-03-11T19:00:41.471Z,97107.34
2023-03-11T19:03:10.289Z,97117.06
2023-03-11T19:05:37.287Z,97116.28
2023-03-11T19:08:05.093Z,97116.91
2023-03-11T19:10:32.089Z,97143.22
2023-03-11T19:13:00.592Z,97141.50
2023-03-11T19:15:27.654Z,97137.34
2023-03-11T19:18:06.334Z,97144.19
2023-03-11T19:20:34.110Z,97147.19
2023-03-11T19:23:01.577Z,97154.25
2023-03-11T19:25:28.931Z,97177.06
2023-03-11T19:27:57.126Z,97177.84
2023-03-11T19:30:26.000Z,97191.44
2023-03-11T19:32:53.313Z,97212.63
2023-03-11T19:35:21.639Z,97200.50
2023-03-11T19:37:49.136Z,97201.81
2023-03-11T19:40:17.637Z,97207.38
2023-03-11T19:42:44.670Z,97208.09
2023-03-11T19:45:11.924Z,97211.53
2023-03-11T19:47:40.262Z,97207.53
2023-03-11T19:50:08.567Z,97206.09
2023-03-11T19:52:36.172Z,97213.91
2023-03-11T19:55:03.894Z,97220.38
2023-03-11T19:57:31.226Z,97227.28
2023-03-11T19:59:58.191Z,97242.53
2023-03-11T20:02:25.283Z,97240.41
2023-03-11T20:04:53.972Z,97242.50
2023-03-11T20:07:21.023Z,97249.09
2023-03-11T20:09:48.131Z,97248.19
2023-03-11T20:12:15.994Z,97258.09
2023-03-11T20:14:42.951Z,97255.53
2023-03-11T20:17:10.114Z,97259.63
2023-03-11T20:19:37.092Z,97258.06
2023-03-11T20:22:05.693Z,97260.75
2023-03-11T20:24:32.731Z,97271.84
2023-03-11T20:26:59.725Z,97276.81
2023-03-11T20:29:26.782Z,97282.81
2023-03-11T20:31:54.160Z,97302.34
2023-03-11T20:34:21.179Z,97324.19
2023-03-11T20:36:49.194Z,97341.53
2023-03-11T20:39:17.578Z,97360.41
2023-03-11T20:41:44.697Z,97360.41
2023-03-11T20:44:13.575Z,97350.19
2023-03-11T20:46:41.414Z,97339.25
2023-03-11T20:49:08.376Z,97337.69
2023-03-11T20:51:35.393Z,97341.91
2023-03-11T20:54:02.385Z,97359.34
2023-03-11T20:56:30.913Z,97368.25
2023-03-11T20:58:59.363Z,97358.22
2023-03-11T21:01:29.299Z,97371.22
2023-03-11T21:03:57.968Z,97376.88
2023-03-11T21:06:26.395Z,97375.19
2023-03-11T21:08:54.536Z,97388.94
2023-03-11T21:11:22.128Z,97392.94
2023-03-11T21:13:50.861Z,97391.72
2023-03-11T21:16:18.179Z,97397.03
2023-03-11T21:18:48.666Z,97407.75
2023-03-11T21:21:17.593Z,97409.03
2023-03-11T21:23:45.501Z,97392.00
2023-03-11T21:26:14.277Z,97407.75
2023-03-11T21:28:46.234Z,97407.03
2023-03-11T21:31:17.031Z,97417.31
2023-03-11T21:33:44.746Z,97419.69
2023-03-11T21:36:14.361Z,97408.47
2023-03-11T21:38:41.872Z,97423.59
2023-03-11T21:41:11.395Z,97418.91
2023-03-11T21:43:39.580Z,97420.84
2023-03-11T21:46:07.824Z,97421.69
2023-03-11T21:48:36.426Z,97413.88
2023-03-11T21:51:03.734Z,97434.91
2023-03-11T21:53:31.432Z,97437.53
2023-03-11T21:55:59.853Z,97440.69
2023-03-11T21:58:27.449Z,97452.50
2023-03-11T22:00:54.419Z,97439.38
2023-03-11T22:03:22.057Z,97442.78
2023-03-11T22:05:55.877Z,97462.66
2023-03-11T22:08:22.966Z,97478.34
2023-03-11T22:10:50.257Z,97477.75
2023-03-11T22:13:17.185Z,97466.41
2023-03-11T22:15:44.437Z,97468.81
2023-03-11T22:18:11.767Z,97472.31
2023-03-11T22:20:40.799Z,97478.28
2023-03-11T22:23:13.065Z,97484.53
2023-03-11T22:25:40.041Z,97484.78
2023-03-11T22:28:06.998Z,97478.13
2023-03-11T22:30:33.904Z,97504.22
2023-03-11T22:33:00.922Z,97481.28
2023-03-11T22:35:27.926Z,97506.19
2023-03-11T22:37:54.909Z,97496.41
2023-03-11T22:40:23.601Z,97492.88
2023-03-11T22:42:50.564Z,97496.41
2023-03-11T22:45:17.768Z,97497.63
2023-03-11T22:47:44.690Z,97494.47
2023-03-11T22:50:11.673Z,97497.22
2023-03-11T22:52:38.671Z,97521.53
2023-03-11T22:55:06.404Z,97527.84
2023-03-11T22:57:38.779Z,97533.53
2023-03-11T23:00:17.222Z,97532.53
2023-03-11T23:02:44.602Z,97548.41
2023-03-11T23:05:12.402Z,97568.59
2023-03-11T23:07:39.786Z,97567.81
2023-03-11T23:10:08.788Z,97575.25
2023-03-11T23:12:37.800Z,97576.06
2023-03-11T23:15:06.598Z,97576.84
2023-03-11T23:17:33.992Z,97573.50
2023-03-11T23:20:01.289Z,97573.31
2023-03-11T23:22:28.331Z,97586.28
2023-03-11T23:24:55.272Z,97593.31
2023-03-11T23:27:22.595Z,97593.72
2023-03-11T23:29:50.887Z,97580.19
2023-03-11T23:32:17.950Z,97584.13
2023-03-11T23:34:46.105Z,97580.00
2023-03-11T23:37:13.263Z,97595.13
2023-03-11T23:39:40.347Z,97590.22
2023-03-11T23:42:22.614Z,97589.78
2023-03-11T23:44:53.236Z,97588.63
2023-03-11T23:47:20.646Z,97585.50
2023-03-11T23:49:47.582Z,97606.47
2023-03-11T23:52:14.570Z,97605.28
2023-03-11T23:54:41.575Z,97613.94
2023-03-11T23:57:08.512Z,97611.94
2023-03-11T23:59:35.460Z,97613.13
